sensor_id;sensor_type;location;lat;lon;timestamp;temperature;humidity
41694;DHT22;27377;50.666;9.150;2023-09-07T00:01:31;14.10;99.90
41694;DHT22;27377;50.666;9.150;2023-09-07T00:03:57;14.10;99.90
41694;DHT22;27377;50.666;9.150;2023-09-07T00:06:23;14.00;99.90
41694;DHT22;27377;50.666;9.150;2023-09-07T00:08:48;13.90;99.90
41694;DHT22;27377;50.666;9.150;2023-09-07T00:11:14;13.90;99.90
41694;DHT22;27377;50.666;9.150;2023-09-07T00:13:40;13.80;99.90
41694;DHT22;27377;50.666;9.150;2023-09-07T00:16:05;13.80;99.90
41694;DHT22;27377;50.666;9.150;2023-09-07T00:18:32;13.70;99.90
41694;DHT22;27377;50.666;9.150;2023-09-07T00:20:58;13.60;99.90
41694;DHT22;27377;50.666;9.150;2023-09-07T00:23:25;13.60;99.90
41694;DHT22;27377;50.666;9.150;2023-09-07T00:25:50;13.60;99.90
41694;DHT22;27377;50.666;9.150;2023-09-07T00:28:16;13.50;99.90
41694;DHT22;27377;50.666;9.150;2023-09-07T00:30:42;13.60;99.90
41694;DHT22;27377;50.666;9.150;2023-09-07T00:33:08;13.50;99.90
41694;DHT22;27377;50.666;9.150;2023-09-07T00:35:33;13.60;99.90
41694;DHT22;27377;50.666;9.150;2023-09-07T00:38:00;13.50;99.90
41694;DHT22;27377;50.666;9.150;2023-09-07T00:40:25;13.50;99.90
41694;DHT22;27377;50.666;9.150;2023-09-07T00:42:52;13.50;99.90
41694;DHT22;27377;50.666;9.150;2023-09-07T00:45:18;13.50;99.90
41694;DHT22;27377;50.666;9.150;2023-09-07T00:47:43;13.40;99.90
41694;DHT22;27377;50.666;9.150;2023-09-07T00:50:10;13.40;99.90
41694;DHT22;27377;50.666;9.150;2023-09-07T00:52:39;13.30;99.90
41694;DHT22;27377;50.666;9.150;2023-09-07T00:55:06;13.30;99.90
41694;DHT22;27377;50.666;9.150;2023-09-07T00:57:32;13.30;99.90
41694;DHT22;27377;50.666;9.150;2023-09-07T00:59:58;13.30;99.90
41694;DHT22;27377;50.666;9.150;2023-09-07T01:02:24;13.40;99.90
41694;DHT22;27377;50.666;9.150;2023-09-07T01:04:51;13.30;99.90
41694;DHT22;27377;50.666;9.150;2023-09-07T01:07:33;13.20;99.90
41694;DHT22;27377;50.666;9.150;2023-09-07T01:10:02;13.20;99.90
41694;DHT22;27377;50.666;9.150;2023-09-07T01:12:28;13.10;99.90
41694;DHT22;27377;50.666;9.150;2023-09-07T01:14:53;13.20;99.90
41694;DHT22;27377;50.666;9.150;2023-09-07T01:17:20;13.20;99.90
41694;DHT22;27377;50.666;9.150;2023-09-07T01:19:48;13.00;99.90
41694;DHT22;27377;50.666;9.150;2023-09-07T01:22:16;12.90;99.90
41694;DHT22;27377;50.666;9.150;2023-09-07T01:24:43;12.80;99.90
41694;DHT22;27377;50.666;9.150;2023-09-07T01:27:10;12.80;99.90
41694;DHT22;27377;50.666;9.150;2023-09-07T01:29:38;12.80;99.90
41694;DHT22;27377;50.666;9.150;2023-09-07T01:32:05;12.80;99.90
41694;DHT22;27377;50.666;9.150;2023-09-07T01:34:30;12.70;99.90
41694;DHT22;27377;50.666;9.150;2023-09-07T01:36:56;12.60;99.90
41694;DHT22;27377;50.666;9.150;2023-09-07T01:39:22;12.60;99.90
41694;DHT22;27377;50.666;9.150;2023-09-07T01:41:47;12.70;99.90
41694;DHT22;27377;50.666;9.150;2023-09-07T01:44:13;12.80;99.90
41694;DHT22;27377;50.666;9.150;2023-09-07T01:46:38;12.80;99.90
41694;DHT22;27377;50.666;9.150;2023-09-07T01:49:04;12.80;99.90
41694;DHT22;27377;50.666;9.150;2023-09-07T01:51:30;12.70;99.90
41694;DHT22;27377;50.666;9.150;2023-09-07T01:53:55;12.60;99.90
41694;DHT22;27377;50.666;9.150;2023-09-07T01:56:21;12.60;99.90
41694;DHT22;27377;50.666;9.150;2023-09-07T01:58:47;12.50;99.90
41694;DHT22;27377;50.666;9.150;2023-09-07T02:01:26;12.50;99.90
41694;DHT22;27377;50.666;9.150;2023-09-07T02:03:52;12.50;99.90
41694;DHT22;27377;50.666;9.150;2023-09-07T02:06:19;12.50;99.90
41694;DHT22;27377;50.666;9.150;2023-09-07T02:08:44;12.40;99.90
41694;DHT22;27377;50.666;9.150;2023-09-07T02:11:10;12.30;99.90
41694;DHT22;27377;50.666;9.150;2023-09-07T02:13:35;12.30;99.90
41694;DHT22;27377;50.666;9.150;2023-09-07T02:16:05;12.30;99.90
41694;DHT22;27377;50.666;9.150;2023-09-07T02:18:32;12.30;99.90
41694;DHT22;27377;50.666;9.150;2023-09-07T02:21:05;12.30;99.90
41694;DHT22;27377;50.666;9.150;2023-09-07T02:23:32;12.30;99.90
41694;DHT22;27377;50.666;9.150;2023-09-07T02:25:58;12.20;99.90
41694;DHT22;27377;50.666;9.150;2023-09-07T02:28:24;12.20;99.90
41694;DHT22;27377;50.666;9.150;2023-09-07T02:30:50;12.10;99.90
41694;DHT22;27377;50.666;9.150;2023-09-07T02:33:16;12.10;99.90
41694;DHT22;27377;50.666;9.150;2023-09-07T02:35:41;12.20;99.90
41694;DHT22;27377;50.666;9.150;2023-09-07T02:38:07;12.20;99.90
41694;DHT22;27377;50.666;9.150;2023-09-07T02:40:32;12.10;99.90
41694;DHT22;27377;50.666;9.150;2023-09-07T02:42:58;12.10;99.90
41694;DHT22;27377;50.666;9.150;2023-09-07T02:45:23;12.10;99.90
41694;DHT22;27377;50.666;9.150;2023-09-07T02:47:49;12.10;99.90
41694;DHT22;27377;50.666;9.150;2023-09-07T02:50:16;12.00;99.90
41694;DHT22;27377;50.666;9.150;2023-09-07T02:52:43;12.00;99.90
41694;DHT22;27377;50.666;9.150;2023-09-07T02:55:09;12.00;99.90
41694;DHT22;27377;50.666;9.150;2023-09-07T02:57:35;12.00;99.90
41694;DHT22;27377;50.666;9.150;2023-09-07T03:00:00;12.10;99.90
41694;DHT22;27377;50.666;9.150;2023-09-07T03:02:27;12.00;99.90
41694;DHT22;27377;50.666;9.150;2023-09-07T03:04:54;12.00;99.90
41694;DHT22;27377;50.666;9.150;2023-09-07T03:07:20;12.00;99.90
41694;DHT22;27377;50.666;9.150;2023-09-07T03:09:46;12.00;99.90
41694;DHT22;27377;50.666;9.150;2023-09-07T03:12:12;12.00;99.90
41694;DHT22;27377;50.666;9.150;2023-09-07T03:14:37;11.90;99.90
41694;DHT22;27377;50.666;9.150;2023-09-07T03:17:03;11.90;99.90
41694;DHT22;27377;50.666;9.150;2023-09-07T03:19:29;11.90;99.90
41694;DHT22;27377;50.666;9.150;2023-09-07T03:21:54;11.90;99.90
41694;DHT22;27377;50.666;9.150;2023-09-07T03:24:20;11.80;99.90
41694;DHT22;27377;50.666;9.150;2023-09-07T03:26:46;11.80;99.90
41694;DHT22;27377;50.666;9.150;2023-09-07T03:29:12;11.80;99.90
41694;DHT22;27377;50.666;9.150;2023-09-07T03:31:37;11.70;99.90
41694;DHT22;27377;50.666;9.150;2023-09-07T03:34:03;11.70;99.90
41694;DHT22;27377;50.666;9.150;2023-09-07T03:36:29;11.70;99.90
41694;DHT22;27377;50.666;9.150;2023-09-07T03:38:54;11.70;99.90
41694;DHT22;27377;50.666;9.150;2023-09-07T03:41:20;11.60;99.90
41694;DHT22;27377;50.666;9.150;2023-09-07T03:43:47;11.60;99.90
41694;DHT22;27377;50.666;9.150;2023-09-07T03:46:12;11.60;99.90
41694;DHT22;27377;50.666;9.150;2023-09-07T03:48:38;11.60;99.90
41694;DHT22;27377;50.666;9.150;2023-09-07T03:51:07;11.60;99.90
41694;DHT22;27377;50.666;9.150;2023-09-07T03:53:34;11.60;99.90
41694;DHT22;27377;50.666;9.150;2023-09-07T03:56:03;11.60;99.90
41694;DHT22;27377;50.666;9.150;2023-09-07T03:58:32;11.60;99.90
41694;DHT22;27377;50.666;9.150;2023-09-07T04:01:01;11.60;99.90
41694;DHT22;27377;50.666;9.150;2023-09-07T04:03:27;11.60;99.90
41694;DHT22;27377;50.666;9.150;2023-09-07T04:05:52;11.60;99.90
41694;DHT22;27377;50.666;9.150;2023-09-07T04:08:18;11.70;99.90
41694;DHT22;27377;50.666;9.150;2023-09-07T04:10:44;11.70;99.90
41694;DHT22;27377;50.666;9.150;2023-09-07T04:13:10;11.60;99.90
41694;DHT22;27377;50.666;9.150;2023-09-07T04:15:45;11.60;99.90
41694;DHT22;27377;50.666;9.150;2023-09-07T04:18:12;11.60;99.90
41694;DHT22;27377;50.666;9.150;2023-09-07T04:20:42;11.60;99.90
41694;DHT22;27377;50.666;9.150;2023-09-07T04:23:08;11.60;99.90
41694;DHT22;27377;50.666;9.150;2023-09-07T04:25:34;11.60;99.90
41694;DHT22;27377;50.666;9.150;2023-09-07T04:27:59;11.60;99.90
41694;DHT22;27377;50.666;9.150;2023-09-07T04:30:25;11.60;99.90
41694;DHT22;27377;50.666;9.150;2023-09-07T04:32:51;11.60;99.90
41694;DHT22;27377;50.666;9.150;2023-09-07T04:35:17;11.60;99.90
41694;DHT22;27377;50.666;9.150;2023-09-07T04:37:43;11.50;99.90
41694;DHT22;27377;50.666;9.150;2023-09-07T04:40:09;11.50;99.90
41694;DHT22;27377;50.666;9.150;2023-09-07T04:42:38;11.60;99.90
41694;DHT22;27377;50.666;9.150;2023-09-07T04:45:05;11.60;99.90
41694;DHT22;27377;50.666;9.150;2023-09-07T04:47:31;11.60;99.90
41694;DHT22;27377;50.666;9.150;2023-09-07T04:49:58;11.50;99.90
41694;DHT22;27377;50.666;9.150;2023-09-07T04:52:23;11.50;99.90
41694;DHT22;27377;50.666;9.150;2023-09-07T04:54:49;11.50;99.90
41694;DHT22;27377;50.666;9.150;2023-09-07T04:57:17;11.50;99.90
41694;DHT22;27377;50.666;9.150;2023-09-07T04:59:43;11.50;99.90
41694;DHT22;27377;50.666;9.150;2023-09-07T05:02:09;11.50;99.90
41694;DHT22;27377;50.666;9.150;2023-09-07T05:04:38;11.50;99.90
41694;DHT22;27377;50.666;9.150;2023-09-07T05:07:04;11.50;99.90
41694;DHT22;27377;50.666;9.150;2023-09-07T05:09:30;11.50;99.90
41694;DHT22;27377;50.666;9.150;2023-09-07T05:11:59;11.50;99.90
41694;DHT22;27377;50.666;9.150;2023-09-07T05:14:25;11.50;99.90
41694;DHT22;27377;50.666;9.150;2023-09-07T05:16:51;11.50;99.90
41694;DHT22;27377;50.666;9.150;2023-09-07T05:19:18;11.60;99.90
41694;DHT22;27377;50.666;9.150;2023-09-07T05:21:49;11.50;99.90
41694;DHT22;27377;50.666;9.150;2023-09-07T05:24:24;11.60;99.90
41694;DHT22;27377;50.666;9.150;2023-09-07T05:27:03;11.60;99.90
41694;DHT22;27377;50.666;9.150;2023-09-07T05:29:47;11.60;99.90
41694;DHT22;27377;50.666;9.150;2023-09-07T05:32:13;11.70;99.90
41694;DHT22;27377;50.666;9.150;2023-09-07T05:34:41;11.70;99.90
41694;DHT22;27377;50.666;9.150;2023-09-07T05:37:10;11.70;99.90
41694;DHT22;27377;50.666;9.150;2023-09-07T05:39:44;11.70;99.90
41694;DHT22;27377;50.666;9.150;2023-09-07T05:42:14;11.80;99.90
41694;DHT22;27377;50.666;9.150;2023-09-07T05:44:41;11.80;99.90
41694;DHT22;27377;50.666;9.150;2023-09-07T05:47:09;11.80;99.90
41694;DHT22;27377;50.666;9.150;2023-09-07T05:49:35;11.90;99.90
41694;DHT22;27377;50.666;9.150;2023-09-07T05:52:02;11.90;99.90
41694;DHT22;27377;50.666;9.150;2023-09-07T05:54:27;12.00;99.90
41694;DHT22;27377;50.666;9.150;2023-09-07T05:56:56;12.00;99.90
41694;DHT22;27377;50.666;9.150;2023-09-07T05:59:25;12.10;99.90
41694;DHT22;27377;50.666;9.150;2023-09-07T06:01:53;12.10;99.90
41694;DHT22;27377;50.666;9.150;2023-09-07T06:04:20;12.20;99.90
41694;DHT22;27377;50.666;9.150;2023-09-07T06:06:46;12.20;99.90
41694;DHT22;27377;50.666;9.150;2023-09-07T06:09:13;12.20;99.90
41694;DHT22;27377;50.666;9.150;2023-09-07T06:11:41;12.30;99.90
41694;DHT22;27377;50.666;9.150;2023-09-07T06:14:07;12.40;99.90
41694;DHT22;27377;50.666;9.150;2023-09-07T06:16:33;12.40;99.90
41694;DHT22;27377;50.666;9.150;2023-09-07T06:19:00;12.50;99.90
41694;DHT22;27377;50.666;9.150;2023-09-07T06:21:27;12.60;99.90
41694;DHT22;27377;50.666;9.150;2023-09-07T06:23:56;12.70;99.90
41694;DHT22;27377;50.666;9.150;2023-09-07T06:26:25;12.80;99.90
41694;DHT22;27377;50.666;9.150;2023-09-07T06:28:51;12.90;99.90
41694;DHT22;27377;50.666;9.150;2023-09-07T06:31:28;13.00;99.90
41694;DHT22;27377;50.666;9.150;2023-09-07T06:33:57;13.10;99.90
41694;DHT22;27377;50.666;9.150;2023-09-07T06:36:31;13.20;99.90
41694;DHT22;27377;50.666;9.150;2023-09-07T06:39:03;13.30;99.90
41694;DHT22;27377;50.666;9.150;2023-09-07T06:41:35;13.40;99.90
41694;DHT22;27377;50.666;9.150;2023-09-07T06:44:01;13.50;99.90
41694;DHT22;27377;50.666;9.150;2023-09-07T06:46:30;13.60;99.90
41694;DHT22;27377;50.666;9.150;2023-09-07T06:49:04;13.70;99.90
41694;DHT22;27377;50.666;9.150;2023-09-07T06:51:34;13.80;99.90
41694;DHT22;27377;50.666;9.150;2023-09-07T06:54:06;13.90;99.90
41694;DHT22;27377;50.666;9.150;2023-09-07T06:56:31;14.00;99.90
41694;DHT22;27377;50.666;9.150;2023-09-07T06:59:00;14.10;99.90
41694;DHT22;27377;50.666;9.150;2023-09-07T07:01:26;14.10;99.90
41694;DHT22;27377;50.666;9.150;2023-09-07T07:03:55;14.20;99.90
41694;DHT22;27377;50.666;9.150;2023-09-07T07:06:23;14.30;99.90
41694;DHT22;27377;50.666;9.150;2023-09-07T07:08:48;14.40;99.90
41694;DHT22;27377;50.666;9.150;2023-09-07T07:11:17;14.50;99.90
41694;DHT22;27377;50.666;9.150;2023-09-07T07:13:43;14.60;99.90
41694;DHT22;27377;50.666;9.150;2023-09-07T07:16:09;14.60;99.90
41694;DHT22;27377;50.666;9.150;2023-09-07T07:18:35;14.80;99.90
41694;DHT22;27377;50.666;9.150;2023-09-07T07:21:02;14.90;99.90
41694;DHT22;27377;50.666;9.150;2023-09-07T07:23:33;15.10;99.90
41694;DHT22;27377;50.666;9.150;2023-09-07T07:26:04;15.20;99.90
41694;DHT22;27377;50.666;9.150;2023-09-07T07:28:34;15.30;99.90
41694;DHT22;27377;50.666;9.150;2023-09-07T07:31:07;15.40;99.90
41694;DHT22;27377;50.666;9.150;2023-09-07T07:33:35;15.50;99.90
41694;DHT22;27377;50.666;9.150;2023-09-07T07:36:01;15.70;99.90
41694;DHT22;27377;50.666;9.150;2023-09-07T07:38:26;15.70;99.90
41694;DHT22;27377;50.666;9.150;2023-09-07T07:40:52;15.90;99.90
41694;DHT22;27377;50.666;9.150;2023-09-07T07:43:19;15.90;99.90
41694;DHT22;27377;50.666;9.150;2023-09-07T07:45:52;16.00;99.90
41694;DHT22;27377;50.666;9.150;2023-09-07T07:48:21;16.10;99.90
41694;DHT22;27377;50.666;9.150;2023-09-07T07:50:50;16.10;99.90
41694;DHT22;27377;50.666;9.150;2023-09-07T07:53:19;16.20;99.90
41694;DHT22;27377;50.666;9.150;2023-09-07T07:55:56;16.30;99.90
41694;DHT22;27377;50.666;9.150;2023-09-07T07:58:25;16.30;99.90
41694;DHT22;27377;50.666;9.150;2023-09-07T08:00:55;16.40;99.90
41694;DHT22;27377;50.666;9.150;2023-09-07T08:03:28;16.40;99.90
41694;DHT22;27377;50.666;9.150;2023-09-07T08:06:04;16.50;99.90
41694;DHT22;27377;50.666;9.150;2023-09-07T08:08:33;16.60;99.90
41694;DHT22;27377;50.666;9.150;2023-09-07T08:11:01;16.70;99.90
41694;DHT22;27377;50.666;9.150;2023-09-07T08:13:34;16.70;99.90
41694;DHT22;27377;50.666;9.150;2023-09-07T08:16:04;16.70;99.90
41694;DHT22;27377;50.666;9.150;2023-09-07T08:18:33;16.80;99.90
41694;DHT22;27377;50.666;9.150;2023-09-07T08:21:00;16.90;99.90
41694;DHT22;27377;50.666;9.150;2023-09-07T08:23:32;16.90;99.90
41694;DHT22;27377;50.666;9.150;2023-09-07T08:25:58;17.00;99.90
41694;DHT22;27377;50.666;9.150;2023-09-07T08:28:25;17.00;99.90
41694;DHT22;27377;50.666;9.150;2023-09-07T08:31:01;17.10;99.90
41694;DHT22;27377;50.666;9.150;2023-09-07T08:33:33;17.10;99.90
41694;DHT22;27377;50.666;9.150;2023-09-07T08:36:05;17.20;99.90
41694;DHT22;27377;50.666;9.150;2023-09-07T08:38:31;17.20;99.90
41694;DHT22;27377;50.666;9.150;2023-09-07T08:41:01;17.20;99.90
41694;DHT22;27377;50.666;9.150;2023-09-07T08:43:33;17.30;99.90
41694;DHT22;27377;50.666;9.150;2023-09-07T08:46:17;17.30;99.90
41694;DHT22;27377;50.666;9.150;2023-09-07T08:48:44;17.40;99.90
41694;DHT22;27377;50.666;9.150;2023-09-07T08:51:15;17.40;99.90
41694;DHT22;27377;50.666;9.150;2023-09-07T08:53:41;17.50;99.90
41694;DHT22;27377;50.666;9.150;2023-09-07T08:56:12;17.50;99.90
41694;DHT22;27377;50.666;9.150;2023-09-07T08:58:39;17.60;99.90
41694;DHT22;27377;50.666;9.150;2023-09-07T09:01:08;17.60;99.90
41694;DHT22;27377;50.666;9.150;2023-09-07T09:03:36;17.70;99.90
41694;DHT22;27377;50.666;9.150;2023-09-07T09:06:03;17.70;99.90
41694;DHT22;27377;50.666;9.150;2023-09-07T09:08:50;17.80;99.90
41694;DHT22;27377;50.666;9.150;2023-09-07T09:11:18;17.80;99.90
41694;DHT22;27377;50.666;9.150;2023-09-07T09:13:45;17.90;99.90
41694;DHT22;27377;50.666;9.150;2023-09-07T09:16:12;17.90;99.90
41694;DHT22;27377;50.666;9.150;2023-09-07T09:19:02;18.00;99.90
41694;DHT22;27377;50.666;9.150;2023-09-07T09:21:28;18.00;99.90
41694;DHT22;27377;50.666;9.150;2023-09-07T09:23:57;18.10;99.90
41694;DHT22;27377;50.666;9.150;2023-09-07T09:26:23;18.10;99.90
41694;DHT22;27377;50.666;9.150;2023-09-07T09:28:50;18.20;99.90
41694;DHT22;27377;50.666;9.150;2023-09-07T09:31:18;18.30;99.90
41694;DHT22;27377;50.666;9.150;2023-09-07T09:33:48;18.20;99.90
41694;DHT22;27377;50.666;9.150;2023-09-07T09:36:17;18.30;99.90
41694;DHT22;27377;50.666;9.150;2023-09-07T09:38:51;18.30;99.90
41694;DHT22;27377;50.666;9.150;2023-09-07T09:41:19;18.30;99.90
41694;DHT22;27377;50.666;9.150;2023-09-07T09:43:47;18.40;99.90
41694;DHT22;27377;50.666;9.150;2023-09-07T09:46:17;18.40;99.90
41694;DHT22;27377;50.666;9.150;2023-09-07T09:48:44;18.50;99.90
41694;DHT22;27377;50.666;9.150;2023-09-07T09:51:10;18.50;99.90
41694;DHT22;27377;50.666;9.150;2023-09-07T09:53:40;18.50;99.90
41694;DHT22;27377;50.666;9.150;2023-09-07T09:56:07;18.60;99.90
41694;DHT22;27377;50.666;9.150;2023-09-07T09:58:33;18.70;99.90
41694;DHT22;27377;50.666;9.150;2023-09-07T10:01:00;18.70;99.90
41694;DHT22;27377;50.666;9.150;2023-09-07T10:03:41;18.80;99.90
41694;DHT22;27377;50.666;9.150;2023-09-07T10:06:49;18.80;99.90
41694;DHT22;27377;50.666;9.150;2023-09-07T10:09:19;18.90;99.90
41694;DHT22;27377;50.666;9.150;2023-09-07T10:11:52;19.00;99.90
41694;DHT22;27377;50.666;9.150;2023-09-07T10:14:19;19.00;99.90
41694;DHT22;27377;50.666;9.150;2023-09-07T10:16:50;19.00;99.90
41694;DHT22;27377;50.666;9.150;2023-09-07T10:19:23;19.10;99.90
41694;DHT22;27377;50.666;9.150;2023-09-07T10:21:50;19.20;99.90
41694;DHT22;27377;50.666;9.150;2023-09-07T10:24:30;19.30;99.90
41694;DHT22;27377;50.666;9.150;2023-09-07T10:27:03;19.30;99.90
41694;DHT22;27377;50.666;9.150;2023-09-07T10:29:41;19.30;99.90
41694;DHT22;27377;50.666;9.150;2023-09-07T10:32:08;19.40;99.90
41694;DHT22;27377;50.666;9.150;2023-09-07T10:34:35;19.40;99.90
41694;DHT22;27377;50.666;9.150;2023-09-07T10:37:05;19.50;99.90
41694;DHT22;27377;50.666;9.150;2023-09-07T10:39:31;19.50;99.90
41694;DHT22;27377;50.666;9.150;2023-09-07T10:41:57;19.60;99.90
41694;DHT22;27377;50.666;9.150;2023-09-07T10:44:27;19.70;99.90
41694;DHT22;27377;50.666;9.150;2023-09-07T10:46:54;19.70;99.90
41694;DHT22;27377;50.666;9.150;2023-09-07T10:49:19;19.70;99.90
41694;DHT22;27377;50.666;9.150;2023-09-07T10:51:46;19.80;99.90
41694;DHT22;27377;50.666;9.150;2023-09-07T10:54:23;19.80;99.90
41694;DHT22;27377;50.666;9.150;2023-09-07T10:56:50;19.90;99.90
41694;DHT22;27377;50.666;9.150;2023-09-07T10:59:16;20.00;99.90
41694;DHT22;27377;50.666;9.150;2023-09-07T11:01:44;19.90;99.90
41694;DHT22;27377;50.666;9.150;2023-09-07T11:04:10;20.00;99.90
41694;DHT22;27377;50.666;9.150;2023-09-07T11:06:40;20.10;99.90
41694;DHT22;27377;50.666;9.150;2023-09-07T11:09:06;20.20;99.90
41694;DHT22;27377;50.666;9.150;2023-09-07T11:11:34;20.10;99.90
41694;DHT22;27377;50.666;9.150;2023-09-07T11:14:05;20.10;99.90
41694;DHT22;27377;50.666;9.150;2023-09-07T11:16:33;20.20;99.90
41694;DHT22;27377;50.666;9.150;2023-09-07T11:19:03;20.20;99.90
41694;DHT22;27377;50.666;9.150;2023-09-07T11:21:30;20.30;99.90
41694;DHT22;27377;50.666;9.150;2023-09-07T11:23:57;20.30;99.90
41694;DHT22;27377;50.666;9.150;2023-09-07T11:26:22;20.40;99.90
41694;DHT22;27377;50.666;9.150;2023-09-07T11:28:48;20.50;99.90
41694;DHT22;27377;50.666;9.150;2023-09-07T11:31:18;20.50;99.90
41694;DHT22;27377;50.666;9.150;2023-09-07T11:33:44;20.50;99.90
41694;DHT22;27377;50.666;9.150;2023-09-07T11:36:12;20.60;99.90
41694;DHT22;27377;50.666;9.150;2023-09-07T11:38:37;20.60;99.90
41694;DHT22;27377;50.666;9.150;2023-09-07T11:41:03;20.60;99.90
41694;DHT22;27377;50.666;9.150;2023-09-07T11:43:29;20.70;99.90
41694;DHT22;27377;50.666;9.150;2023-09-07T11:45:55;20.70;99.90
41694;DHT22;27377;50.666;9.150;2023-09-07T11:48:20;20.70;99.90
41694;DHT22;27377;50.666;9.150;2023-09-07T11:50:46;20.70;99.90
41694;DHT22;27377;50.666;9.150;2023-09-07T11:53:12;20.80;99.90
41694;DHT22;27377;50.666;9.150;2023-09-07T11:55:37;20.80;99.90
41694;DHT22;27377;50.666;9.150;2023-09-07T11:58:04;20.80;99.90
41694;DHT22;27377;50.666;9.150;2023-09-07T12:00:30;20.90;99.90
41694;DHT22;27377;50.666;9.150;2023-09-07T12:02:57;20.90;99.90
41694;DHT22;27377;50.666;9.150;2023-09-07T12:05:23;20.90;99.90
41694;DHT22;27377;50.666;9.150;2023-09-07T12:07:48;21.00;99.90
41694;DHT22;27377;50.666;9.150;2023-09-07T12:10:14;21.00;99.90
41694;DHT22;27377;50.666;9.150;2023-09-07T12:12:40;21.10;99.90
41694;DHT22;27377;50.666;9.150;2023-09-07T12:15:06;21.10;99.90
41694;DHT22;27377;50.666;9.150;2023-09-07T12:17:32;21.10;99.90
41694;DHT22;27377;50.666;9.150;2023-09-07T12:19:58;21.20;99.90
41694;DHT22;27377;50.666;9.150;2023-09-07T12:22:24;21.20;99.90
41694;DHT22;27377;50.666;9.150;2023-09-07T12:24:49;21.20;99.90
41694;DHT22;27377;50.666;9.150;2023-09-07T12:27:15;21.30;99.90
41694;DHT22;27377;50.666;9.150;2023-09-07T12:29:41;21.30;99.90
41694;DHT22;27377;50.666;9.150;2023-09-07T12:32:07;21.30;99.90
41694;DHT22;27377;50.666;9.150;2023-09-07T12:34:33;21.30;99.90
41694;DHT22;27377;50.666;9.150;2023-09-07T12:36:58;21.30;99.90
41694;DHT22;27377;50.666;9.150;2023-09-07T12:39:24;21.30;99.90
41694;DHT22;27377;50.666;9.150;2023-09-07T12:41:49;21.40;99.90
41694;DHT22;27377;50.666;9.150;2023-09-07T12:44:15;21.40;99.90
41694;DHT22;27377;50.666;9.150;2023-09-07T12:46:43;21.40;99.90
41694;DHT22;27377;50.666;9.150;2023-09-07T12:49:09;21.50;99.90
41694;DHT22;27377;50.666;9.150;2023-09-07T12:51:35;21.40;99.90
41694;DHT22;27377;50.666;9.150;2023-09-07T12:54:00;21.50;99.90
41694;DHT22;27377;50.666;9.150;2023-09-07T12:56:26;21.50;99.90
41694;DHT22;27377;50.666;9.150;2023-09-07T12:58:51;21.50;99.90
41694;DHT22;27377;50.666;9.150;2023-09-07T13:01:17;21.50;99.90
41694;DHT22;27377;50.666;9.150;2023-09-07T13:03:44;21.60;99.90
41694;DHT22;27377;50.666;9.150;2023-09-07T13:06:10;21.60;99.90
41694;DHT22;27377;50.666;9.150;2023-09-07T13:08:35;21.70;99.90
41694;DHT22;27377;50.666;9.150;2023-09-07T13:11:01;21.70;99.90
41694;DHT22;27377;50.666;9.150;2023-09-07T13:13:26;21.70;99.90
41694;DHT22;27377;50.666;9.150;2023-09-07T13:15:58;21.70;99.90
41694;DHT22;27377;50.666;9.150;2023-09-07T13:18:24;21.70;99.90
41694;DHT22;27377;50.666;9.150;2023-09-07T13:20:50;21.80;99.90
41694;DHT22;27377;50.666;9.150;2023-09-07T13:23:17;21.80;99.90
41694;DHT22;27377;50.666;9.150;2023-09-07T13:25:43;21.80;99.90
41694;DHT22;27377;50.666;9.150;2023-09-07T13:28:09;21.80;99.90
41694;DHT22;27377;50.666;9.150;2023-09-07T13:30:34;21.80;99.90
41694;DHT22;27377;50.666;9.150;2023-09-07T13:33:00;21.90;99.90
41694;DHT22;27377;50.666;9.150;2023-09-07T13:35:25;21.90;99.90
41694;DHT22;27377;50.666;9.150;2023-09-07T13:37:51;22.00;99.90
41694;DHT22;27377;50.666;9.150;2023-09-07T13:40:17;21.90;99.90
41694;DHT22;27377;50.666;9.150;2023-09-07T13:42:45;22.00;99.90
41694;DHT22;27377;50.666;9.150;2023-09-07T13:45:11;22.00;99.90
41694;DHT22;27377;50.666;9.150;2023-09-07T13:47:37;22.10;99.90
41694;DHT22;27377;50.666;9.150;2023-09-07T13:50:03;22.10;99.90
41694;DHT22;27377;50.666;9.150;2023-09-07T13:52:29;22.10;99.90
41694;DHT22;27377;50.666;9.150;2023-09-07T13:54:55;22.10;99.90
41694;DHT22;27377;50.666;9.150;2023-09-07T13:57:21;22.20;99.90
41694;DHT22;27377;50.666;9.150;2023-09-07T13:59:46;22.20;99.90
41694;DHT22;27377;50.666;9.150;2023-09-07T14:02:12;22.20;99.90
41694;DHT22;27377;50.666;9.150;2023-09-07T14:04:37;22.20;99.90
41694;DHT22;27377;50.666;9.150;2023-09-07T14:07:03;22.20;99.90
41694;DHT22;27377;50.666;9.150;2023-09-07T14:09:29;22.20;99.90
41694;DHT22;27377;50.666;9.150;2023-09-07T14:11:54;22.30;99.90
41694;DHT22;27377;50.666;9.150;2023-09-07T14:14:21;22.30;99.90
41694;DHT22;27377;50.666;9.150;2023-09-07T14:16:47;22.30;99.90
41694;DHT22;27377;50.666;9.150;2023-09-07T14:19:12;22.30;99.90
41694;DHT22;27377;50.666;9.150;2023-09-07T14:21:38;22.30;99.90
41694;DHT22;27377;50.666;9.150;2023-09-07T14:24:05;22.30;99.90
41694;DHT22;27377;50.666;9.150;2023-09-07T14:26:31;22.30;99.90
41694;DHT22;27377;50.666;9.150;2023-09-07T14:28:57;22.30;99.90
41694;DHT22;27377;50.666;9.150;2023-09-07T14:31:23;22.30;99.90
41694;DHT22;27377;50.666;9.150;2023-09-07T14:33:49;22.40;99.90
41694;DHT22;27377;50.666;9.150;2023-09-07T14:36:15;22.50;99.90
41694;DHT22;27377;50.666;9.150;2023-09-07T14:38:41;22.50;99.90
41694;DHT22;27377;50.666;9.150;2023-09-07T14:41:10;22.50;99.90
41694;DHT22;27377;50.666;9.150;2023-09-07T14:43:47;22.50;99.90
41694;DHT22;27377;50.666;9.150;2023-09-07T14:46:14;22.40;99.90
41694;DHT22;27377;50.666;9.150;2023-09-07T14:48:39;22.40;99.90
41694;DHT22;27377;50.666;9.150;2023-09-07T14:51:06;22.50;99.90
41694;DHT22;27377;50.666;9.150;2023-09-07T14:53:32;22.50;99.90
41694;DHT22;27377;50.666;9.150;2023-09-07T14:55:58;22.50;99.90
41694;DHT22;27377;50.666;9.150;2023-09-07T14:58:27;22.50;99.90
41694;DHT22;27377;50.666;9.150;2023-09-07T15:00:53;22.50;99.90
41694;DHT22;27377;50.666;9.150;2023-09-07T15:03:18;22.60;99.90
41694;DHT22;27377;50.666;9.150;2023-09-07T15:05:44;22.50;99.90
41694;DHT22;27377;50.666;9.150;2023-09-07T15:08:10;22.50;99.90
41694;DHT22;27377;50.666;9.150;2023-09-07T15:10:35;22.50;99.90
41694;DHT22;27377;50.666;9.150;2023-09-07T15:13:01;22.50;99.90
41694;DHT22;27377;50.666;9.150;2023-09-07T15:15:29;22.50;99.90
41694;DHT22;27377;50.666;9.150;2023-09-07T15:17:56;22.50;99.90
41694;DHT22;27377;50.666;9.150;2023-09-07T15:20:22;22.60;99.90
41694;DHT22;27377;50.666;9.150;2023-09-07T15:22:48;22.50;99.90
41694;DHT22;27377;50.666;9.150;2023-09-07T15:25:13;22.50;99.90
41694;DHT22;27377;50.666;9.150;2023-09-07T15:27:39;22.50;99.90
41694;DHT22;27377;50.666;9.150;2023-09-07T15:30:05;22.50;99.90
41694;DHT22;27377;50.666;9.150;2023-09-07T15:32:31;22.50;99.90